howopen.org alexa rank chart, howopen.org alexa rank daily changes

howopen.org alexa rank chart, howopen.org alexa rank daily changes

howopen.org
Actual rank:
412 993

RANK HISTORY

Date Rank Diff
2016/12/08 412 993 -350
2016/12/07 413 343 +14 030
2016/12/06 399 313 +10 169
2016/12/05 389 144 +4 063
2016/12/04 385 081 -12 738
2016/12/02 397 819 +122
2016/12/01 397 697 +1 419
2016/11/30 396 278 -6 788
2016/11/29 403 066 +1 468
2016/11/28 401 598 -3 986
2016/11/27 405 584 +151
2016/11/26 405 433 +25 384
2016/11/25 380 049 -9 226
2016/11/24 389 275 +1 717
2016/11/23 387 558 -27 843
2016/11/19 415 401 -6 945
2016/11/18 422 346 -12 360
2016/11/17 434 706 -17 260
2016/11/16 451 966 +3 467
2016/11/15 448 499 +24 856
2016/11/14 423 643 -5 387
2016/11/13 429 030 -11 591
2016/11/12 440 621 -16 819
2016/11/11 457 440 -3 239
2016/11/10 460 679 -23 840
2016/11/09 484 519 -5 822
2016/11/08 490 341 -7 381
2016/11/07 497 722 -15 621
2016/11/06 513 343 -28 643
2016/11/05 541 986 -8 619
2016/11/04 550 605 +32 730
2016/11/03 517 875 -12 427
2016/11/02 530 302 -19 880
2016/11/01 550 182 +7 624
2016/10/31 542 558 -16 389
2016/10/30 558 947 +1 207
2016/10/29 557 740 -8 203
2016/10/28 565 943 +12 436
2016/10/27 553 507 +6 349
2016/10/26 547 158 -65 200
2016/10/25 612 358 +849
2016/10/24 611 509 -21 691
2016/10/23 633 200 +46 878
2016/10/22 586 322 +10 574
2016/10/21 575 748 +8 507
2016/10/20 567 241 +12 853
2016/10/19 554 388 -26 130
2016/10/18 580 518 +2 312
2016/10/17 578 206 +11 208
2016/10/16 566 998 -7 949
2016/10/15 574 947 -306 572
2016/10/14 881 519 +123 253
2016/10/13 758 266 +12 071
2016/10/12 746 195 -89 342
2016/10/11 835 537 -41 852
2016/10/10 877 389 -10 257
2016/10/09 887 646

WIDGET FOR YOUR SITE

DOMAINS WITH THE NEAREST RANK

Domain Rank
ratloads.com 412 988
english-spanish-translator.org 412 989
uaefreezones.com 412 990
linfotoutcourt.com 412 991
collateralbeauty-movie.com 412 992
howopen.org 412 993
nur.ac.rw 412 994
hyundaioemparts.com 412 995
hkv.hr 412 996
lolskinlistgenerator.com 412 997
findr.co.th 412 998

DOMAINS WITH THE NEAREST RANK BY TLD .org

Domain Rank
koko.org 412 939
auto-lawyer.org 412 954
dlib.org 412 970
royalneighbors.org 412 984
english-spanish-translator.org 412 989
howopen.org 412 993
wedu.org 413 041
space-track.org 413 055
bethlehemschools.org 413 069
bmfa.org 413 110
rollanet.org 413 153